»·PEaware :: N517DL KSNA-KCRQ

N517DL :: KSNA-KCRQ

FLIGHT INFORMATION

Flight Status: Arrived
Operator: Privately registered:
United States
More flights under this callsign
Pilot: John A. (34961)
Aircraft: CESSNA 172 SKYHAWK
(C172)
More flights by this aircraft type
Origin: KSNA John Wayne-Orange Co
United States
Destination: KCRQ McClellan-Palomar
United States
More flights between these airports :: More routes between these airports
Route: V23 OCN
File this flight plan on PilotEdge
Remarks: I-2 rating
Altitude:
(Current/Filed)
5,000ft
Speed:
(Current/Filed)
110kts
Departed: 19-Jun-21 04:24 PM
Arrived: 19-Jun-21 05:09 PM
Distance/Time
Traveled:
44nm/0:44
Distance/Time
To Go:
Arrived

Flight Plot

Page will automatically refresh every two minutes.


Map Options




Map Legend


Flown Route
Filed Route
Departure Airport
Arrival Airport
Navaid (VOR, NDB)
Fix

Horizontal Profiles

Position Reports

Time Latitude Longitude Heading Altitude Ground
Speed
19-Jun-21 16:12 33.673771 -117.865767 118 60ft 0kts
19-Jun-21 16:13 33.673976 -117.865940 319 60ft 0kts
19-Jun-21 16:14 33.673976 -117.865940 319 60ft 0kts
19-Jun-21 16:15 33.673976 -117.865940 319 60ft 0kts
19-Jun-21 16:16 33.673978 -117.865942 317 60ft 0kts
19-Jun-21 16:17 33.676665 -117.864876 25 60ft 19kts
19-Jun-21 16:18 33.679928 -117.863547 296 60ft 0kts
19-Jun-21 16:19 33.679928 -117.863547 296 60ft 0kts
19-Jun-21 16:20 33.679928 -117.863547 296 60ft 0kts
19-Jun-21 16:21 33.679928 -117.863547 296 60ft 0kts
19-Jun-21 16:22 33.679971 -117.863656 295 60ft 5kts
19-Jun-21 16:23 33.671474 -117.869663 207 276ft 75kts
19-Jun-21 16:24 33.651169 -117.876097 184 1125ft 78kts
19-Jun-21 16:25 33.629483 -117.878711 186 1935ft 79kts
19-Jun-21 16:26 33.607553 -117.881726 187 2702ft 80kts
19-Jun-21 16:27 33.580674 -117.885417 186 2989ft 119kts
19-Jun-21 16:28 33.551739 -117.878952 113 2924ft 111kts
19-Jun-21 16:29 33.540066 -117.845848 110 2974ft 107kts
19-Jun-21 16:30 33.527723 -117.813129 123 2968ft 108kts
19-Jun-21 16:31 33.515806 -117.780338 112 3316ft 107kts
19-Jun-21 16:32 33.505365 -117.747247 110 3872ft 107kts
19-Jun-21 16:33 33.493065 -117.714607 113 4379ft 108kts
19-Jun-21 16:34 33.473151 -117.687528 140 4847ft 108kts
19-Jun-21 16:35 33.450101 -117.661702 133 5099ft 119kts
19-Jun-21 16:36 33.425804 -117.632854 136 4971ft 112kts
19-Jun-21 16:37 33.403158 -117.606769 134 4965ft 112kts
19-Jun-21 16:38 33.381811 -117.579399 127 4967ft 113kts
19-Jun-21 16:39 33.358927 -117.554402 135 5085ft 103kts
19-Jun-21 16:40 33.337021 -117.529950 134 5104ft 111kts
19-Jun-21 16:41 33.315137 -117.504209 110 5107ft 114kts
19-Jun-21 16:42 33.311368 -117.467389 93 5157ft 112kts
19-Jun-21 16:43 33.307880 -117.430319 95 5172ft 112kts
19-Jun-21 16:44 33.304290 -117.393100 95 5176ft 113kts
19-Jun-21 16:45 33.300905 -117.355545 94 5158ft 114kts
19-Jun-21 16:46 33.296788 -117.318108 97 5171ft 112kts
19-Jun-21 16:47 33.292826 -117.280652 97 5170ft 112kts
19-Jun-21 16:48 33.288263 -117.243425 95 5166ft 112kts
19-Jun-21 16:49 33.284619 -117.206067 95 5155ft 114kts
19-Jun-21 16:50 33.280844 -117.168671 96 5159ft 113kts
19-Jun-21 16:51 33.277224 -117.131355 93 5173ft 113kts
19-Jun-21 16:52 33.273532 -117.093692 96 5147ft 114kts
19-Jun-21 16:53 33.258728 -117.062143 143 4851ft 111kts
19-Jun-21 16:54 33.233955 -117.039894 141 4256ft 110kts
19-Jun-21 16:55 33.210551 -117.017863 140 4126ft 103kts
19-Jun-21 16:56 33.188004 -116.995636 141 4169ft 108kts
19-Jun-21 16:57 33.162677 -116.978668 205 4166ft 112kts
19-Jun-21 16:58 33.164822 -117.013194 280 4115ft 107kts
19-Jun-21 16:59 33.165072 -117.047941 258 3842ft 104kts
19-Jun-21 17:00 33.158683 -117.079435 260 3764ft 91kts
19-Jun-21 17:01 33.154267 -117.110537 258 3747ft 96kts
19-Jun-21 17:02 33.150434 -117.141743 257 2813ft 95kts
19-Jun-21 17:03 33.146570 -117.166460 256 2305ft 79kts
19-Jun-21 17:04 33.142415 -117.190448 263 1924ft 90kts
19-Jun-21 17:05 33.138722 -117.215547 258 1377ft 86kts
19-Jun-21 17:06 33.133691 -117.246062 262 822ft 85kts
19-Jun-21 17:07 33.129420 -117.272751 259 332ft 67kts
19-Jun-21 17:08 33.127412 -117.280303 259 310ft 0kts
19-Jun-21 17:09 33.127412 -117.280303 259 310ft 0kts

Navigation Log

Ident Type
Flight plan parsing failed, navigation log unavailable